Time;durP1;ratioP1;P1;durP2;ratioP2;P2;SDS_P1;SDS_P2;PMS_P1;PMS_P2;Temp;Humidity;BMP_temperature;BMP_pressure;BME280_temperature;BME280_humidity;BME280_pressure;Samples;Min_cycle;Max_cycle;Signal;HPM_P1;HPM_P2
2024/03/07 00:00:19;;;;;;;55.07;18.07;;;4.60;99.90;;;;;;5071989;28;20385;-54
2024/03/07 00:02:49;;;;;;;47.23;17.80;;;4.60;99.90;;;;;;5071817;28;20025;-55
2024/03/07 00:05:20;;;;;;;55.20;17.27;;;4.60;99.90;;;;;;5071915;28;20032;-56
2024/03/07 00:07:47;;;;;;;50.97;18.70;;;4.50;99.90;;;;;;5070634;28;20109;-55
2024/03/07 00:10:12;;;;;;;53.57;18.53;;;4.50;99.90;;;;;;5071818;28;20036;-54
2024/03/07 00:12:40;;;;;;;54.87;19.17;;;4.40;99.90;;;;;;5072073;28;20032;-56
2024/03/07 00:15:11;;;;;;;48.10;19.10;;;4.40;99.90;;;;;;5071877;28;20028;-56
2024/03/07 00:17:37;;;;;;;52.87;18.03;;;4.40;99.90;;;;;;5071741;28;20025;-55
2024/03/07 00:20:08;;;;;;;54.40;17.93;;;4.40;99.90;;;;;;5071591;28;20047;-55
2024/03/07 00:22:34;;;;;;;53.10;19.43;;;4.40;99.90;;;;;;5071416;28;20020;-55
2024/03/07 00:24:59;;;;;;;61.23;20.33;;;4.40;99.90;;;;;;5071210;28;20082;-53
2024/03/07 00:27:26;;;;;;;51.90;18.50;;;4.40;99.90;;;;;;5071705;28;20039;-56
2024/03/07 00:29:54;;;;;;;58.03;19.77;;;4.40;99.90;;;;;;5071557;28;20036;-53
2024/03/07 00:32:20;;;;;;;56.63;19.30;;;4.40;99.90;;;;;;5071514;28;20190;-56
2024/03/07 00:34:47;;;;;;;59.57;19.27;;;4.40;99.90;;;;;;5071549;28;20416;-53
2024/03/07 00:37:13;;;;;;;63.13;21.63;;;4.40;99.90;;;;;;5071497;28;20040;-54
2024/03/07 00:39:38;;;;;;;70.13;20.20;;;4.30;99.90;;;;;;5071476;28;20024;-53
2024/03/07 00:42:04;;;;;;;62.43;20.23;;;4.40;99.90;;;;;;5071379;28;20074;-51
2024/03/07 00:44:30;;;;;;;57.40;19.87;;;4.40;99.90;;;;;;5071510;28;20473;-53
2024/03/07 00:46:56;;;;;;;57.67;19.43;;;4.30;99.90;;;;;;5071388;28;20029;-50
2024/03/07 00:49:23;;;;;;;62.47;22.13;;;4.30;99.90;;;;;;5071420;28;20025;-51
2024/03/07 00:51:49;;;;;;;59.03;20.93;;;4.30;99.90;;;;;;5071247;28;20454;-53
2024/03/07 00:54:14;;;;;;;57.50;19.70;;;4.30;99.90;;;;;;5071491;28;20028;-50
2024/03/07 00:56:40;;;;;;;59.80;20.53;;;4.30;99.90;;;;;;5071359;28;20539;-51
2024/03/07 00:59:06;;;;;;;64.57;21.27;;;4.30;99.90;;;;;;5069912;28;20067;-52
2024/03/07 01:01:33;;;;;;;67.10;20.60;;;4.30;99.90;;;;;;5071188;28;20503;-53
2024/03/07 01:04:00;;;;;;;61.10;20.17;;;4.30;99.90;;;;;;5071254;28;20107;-52
2024/03/07 01:06:26;;;;;;;72.30;22.70;;;4.20;99.90;;;;;;5071211;28;20020;-50
2024/03/07 01:08:51;;;;;;;64.53;22.37;;;4.20;99.90;;;;;;5071305;28;20044;-51
2024/03/07 01:11:17;;;;;;;55.90;19.00;;;4.20;99.90;;;;;;5071097;28;20029;-49
2024/03/07 01:13:43;;;;;;;60.73;20.03;;;4.20;99.90;;;;;;5071280;28;20039;-53
2024/03/07 01:16:09;;;;;;;60.87;22.10;;;4.20;99.90;;;;;;5071056;28;20477;-51
2024/03/07 01:18:35;;;;;;;65.33;21.50;;;4.20;99.90;;;;;;5071097;28;20028;-54
2024/03/07 01:21:02;;;;;;;63.60;21.73;;;4.20;99.90;;;;;;5071016;28;20083;-52
2024/03/07 01:23:28;;;;;;;64.73;20.67;;;4.20;99.90;;;;;;5071242;28;20029;-52
2024/03/07 01:25:58;;;;;;;62.13;21.47;;;4.10;99.90;;;;;;5071056;28;20082;-55
2024/03/07 01:28:30;;;;;;;71.03;21.93;;;4.10;99.90;;;;;;5071128;28;20119;-51
2024/03/07 01:30:57;;;;;;;66.37;21.93;;;4.10;99.90;;;;;;5070881;28;20025;-52
2024/03/07 01:33:23;;;;;;;71.43;22.30;;;4.10;99.90;;;;;;5070978;28;20398;-52
2024/03/07 01:35:49;;;;;;;57.70;20.83;;;4.10;99.90;;;;;;5070919;28;20064;-51
2024/03/07 01:38:15;;;;;;;59.83;20.73;;;4.10;99.90;;;;;;5074129;28;20091;-55
2024/03/07 01:40:42;;;;;;;73.77;22.47;;;4.10;99.90;;;;;;5074688;28;20020;-52
2024/03/07 01:43:08;;;;;;;73.87;22.37;;;4.10;99.90;;;;;;5074403;28;20036;-51
2024/03/07 01:45:37;;;;;;;59.93;19.93;;;4.10;99.90;;;;;;5074378;28;20086;-55
2024/03/07 01:48:08;;;;;;;65.18;21.20;;;4.10;99.90;;;;;;5074479;28;20497;-53
2024/03/07 01:50:38;;;;;;;72.77;21.40;;;4.10;99.90;;;;;;5074305;28;20028;-56
2024/03/07 01:53:06;;;;;;;61.00;20.60;;;4.10;99.90;;;;;;5074625;28;20040;-51
2024/03/07 01:55:32;;;;;;;61.40;21.97;;;4.20;99.90;;;;;;5074241;28;20064;-55
2024/03/07 01:58:01;;;;;;;67.37;21.77;;;4.20;99.90;;;;;;5074216;28;20028;-55
2024/03/07 02:00:28;;;;;;;66.47;21.15;;;4.30;99.90;;;;;;5074198;28;20025;-53
2024/03/07 02:02:53;;;;;;;67.80;22.70;;;4.30;99.90;;;;;;5074119;28;20028;-54
2024/03/07 02:05:20;;;;;;;66.43;22.47;;;4.30;99.90;;;;;;5074151;28;20491;-54
2024/03/07 02:07:47;;;;;;;67.73;21.67;;;4.30;99.90;;;;;;5072926;28;20036;-51
2024/03/07 02:10:13;;;;;;;62.27;21.03;;;4.30;99.90;;;;;;5074026;28;20429;-56
2024/03/07 02:12:38;;;;;;;64.17;20.33;;;4.30;99.90;;;;;;5073827;28;20028;-53
2024/03/07 02:15:04;;;;;;;71.23;23.60;;;4.20;99.90;;;;;;5073982;28;20507;-53
2024/03/07 02:17:30;;;;;;;61.77;21.37;;;4.20;99.90;;;;;;5073851;28;20021;-54
2024/03/07 02:19:55;;;;;;;62.27;21.00;;;4.20;99.90;;;;;;5073836;28;20473;-52
2024/03/07 02:22:21;;;;;;;67.97;21.60;;;4.20;99.90;;;;;;5073767;28;20025;-53
2024/03/07 02:24:47;;;;;;;63.90;21.93;;;4.10;99.90;;;;;;5073786;28;20388;-54
2024/03/07 02:27:14;;;;;;;66.10;21.27;;;4.10;99.90;;;;;;5073776;28;20028;-54
2024/03/07 02:29:41;;;;;;;70.20;22.60;;;4.10;99.90;;;;;;5073802;28;20033;-52
2024/03/07 02:32:07;;;;;;;59.90;23.30;;;4.10;99.90;;;;;;5073491;28;20028;-54
2024/03/07 02:34:32;;;;;;;67.43;21.97;;;4.00;99.90;;;;;;5073450;28;20036;-54
2024/03/07 02:36:58;;;;;;;63.07;22.23;;;4.00;99.90;;;;;;5073552;28;20489;-49
2024/03/07 02:39:26;;;;;;;63.17;20.97;;;4.00;99.90;;;;;;5073361;28;20378;-52
2024/03/07 02:41:52;;;;;;;68.53;21.87;;;3.90;99.90;;;;;;5073334;28;20029;-52
2024/03/07 02:44:19;;;;;;;65.90;22.10;;;3.90;99.90;;;;;;5073451;28;20027;-52
2024/03/07 02:46:45;;;;;;;61.03;21.50;;;3.80;99.90;;;;;;5073413;28;20029;-56
2024/03/07 02:49:10;;;;;;;66.63;22.37;;;3.80;99.90;;;;;;5072949;28;20366;-54
2024/03/07 02:51:36;;;;;;;65.00;20.30;;;3.80;99.90;;;;;;5073044;28;20032;-52
2024/03/07 02:54:05;;;;;;;66.50;20.63;;;3.70;99.90;;;;;;5073233;28;20502;-53
2024/03/07 02:56:31;;;;;;;60.25;20.38;;;3.70;99.90;;;;;;5073232;28;20046;-54
2024/03/07 02:58:57;;;;;;;62.27;20.80;;;3.70;99.90;;;;;;5073025;28;20114;-52
2024/03/07 03:01:22;;;;;;;60.93;21.07;;;3.70;99.90;;;;;;5072931;28;20059;-54
2024/03/07 03:03:48;;;;;;;66.30;21.43;;;3.60;99.90;;;;;;5073031;28;20074;-52
2024/03/07 03:06:13;;;;;;;65.60;22.20;;;3.60;99.90;;;;;;5072885;28;20510;-54
2024/03/07 03:08:39;;;;;;;64.07;21.73;;;3.60;99.90;;;;;;5072923;28;20037;-53
2024/03/07 03:11:05;;;;;;;61.10;20.57;;;3.60;99.90;;;;;;5072818;28;20504;-52
2024/03/07 03:13:30;;;;;;;75.60;22.03;;;3.50;99.90;;;;;;5071342;28;20119;-53
2024/03/07 03:15:56;;;;;;;65.30;20.57;;;3.50;99.90;;;;;;5072572;28;20060;-53
2024/03/07 03:18:23;;;;;;;60.77;21.07;;;3.50;99.90;;;;;;5072579;28;20025;-53
2024/03/07 03:20:49;;;;;;;64.17;22.97;;;3.50;99.90;;;;;;5072600;28;20036;-50
2024/03/07 03:23:15;;;;;;;70.40;21.47;;;3.40;99.90;;;;;;5072418;28;20025;-52
2024/03/07 03:25:41;;;;;;;75.40;23.40;;;3.40;99.90;;;;;;5072541;28;20027;-52
2024/03/07 03:28:11;;;;;;;70.07;22.20;;;3.40;99.90;;;;;;5072768;28;20052;-55
2024/03/07 03:30:38;;;;;;;78.85;22.98;;;3.40;99.90;;;;;;5072481;28;20028;-53
2024/03/07 03:33:04;;;;;;;68.30;21.90;;;3.30;99.90;;;;;;5072314;28;20028;-54
2024/03/07 03:35:29;;;;;;;70.63;22.40;;;3.30;99.90;;;;;;5072390;28;20073;-54
2024/03/07 03:37:55;;;;;;;72.20;22.50;;;3.30;99.90;;;;;;5072190;28;20119;-54
2024/03/07 03:40:20;;;;;;;65.23;21.80;;;3.30;99.90;;;;;;5072177;28;20032;-54
2024/03/07 03:42:46;;;;;;;75.13;21.43;;;3.30;99.90;;;;;;5072113;28;20032;-53
2024/03/07 03:45:15;;;;;;;75.83;23.67;;;3.20;99.90;;;;;;5072158;28;20500;-54
2024/03/07 03:47:42;;;;;;;65.60;20.67;;;3.20;99.90;;;;;;5072180;28;20082;-54
2024/03/07 03:50:09;;;;;;;64.43;21.67;;;3.20;99.90;;;;;;5072108;28;20473;-54
2024/03/07 03:52:35;;;;;;;67.67;21.77;;;3.20;99.90;;;;;;5071951;28;20043;-54
2024/03/07 03:55:01;;;;;;;71.17;21.93;;;3.20;99.90;;;;;;5072019;28;20093;-53
2024/03/07 03:57:29;;;;;;;73.90;22.30;;;3.20;99.90;;;;;;5071953;28;20071;-55
2024/03/07 03:59:55;;;;;;;68.43;21.30;;;3.20;99.90;;;;;;5071690;28;20127;-52
2024/03/07 04:02:22;;;;;;;67.43;22.03;;;3.20;99.90;;;;;;5071771;28;20086;-54
2024/03/07 04:04:52;;;;;;;75.93;22.23;;;3.20;99.90;;;;;;5071938;28;20127;-54
2024/03/07 04:07:18;;;;;;;74.67;22.77;;;3.20;99.90;;;;;;5071836;28;20028;-54
2024/03/07 04:09:45;;;;;;;68.50;20.73;;;3.30;99.90;;;;;;5071918;28;20119;-52
2024/03/07 04:12:11;;;;;;;69.53;23.43;;;3.30;99.90;;;;;;5071694;28;20021;-54
2024/03/07 04:14:41;;;;;;;73.00;22.20;;;3.30;99.90;;;;;;5071761;28;20393;-53
2024/03/07 04:17:07;;;;;;;;;;;3.30;99.90;;;;;;5072195;28;20443;-54
2024/03/07 04:19:40;;;;;;;65.63;21.70;;;3.30;99.90;;;;;;5070112;28;19920;-55
2024/03/07 04:22:05;;;;;;;69.70;22.20;;;3.30;99.90;;;;;;5071653;28;20082;-54
2024/03/07 04:24:34;;;;;;;66.13;22.10;;;3.30;99.90;;;;;;5071720;28;20428;-53
2024/03/07 04:27:04;;;;;;;68.40;20.63;;;3.30;99.90;;;;;;5071739;28;20107;-54
2024/03/07 04:29:30;;;;;;;62.22;20.70;;;3.40;99.90;;;;;;5071578;28;20059;-51
2024/03/07 04:31:56;;;;;;;66.83;20.77;;;3.40;99.90;;;;;;5071451;28;20090;-54
2024/03/07 04:34:22;;;;;;;66.53;23.07;;;3.40;99.90;;;;;;5071565;28;20036;-50
2024/03/07 04:36:47;;;;;;;58.90;21.90;;;3.30;99.90;;;;;;5071577;28;20071;-54
2024/03/07 04:39:27;;;;;;;63.33;20.77;;;3.30;99.90;;;;;;5071520;28;20043;-54
2024/03/07 04:41:54;;;;;;;66.37;22.07;;;3.30;99.90;;;;;;5071445;28;20028;-52
2024/03/07 04:44:22;;;;;;;66.13;20.50;;;3.20;99.90;;;;;;5071479;28;20501;-53
2024/03/07 04:46:49;;;;;;;64.33;21.40;;;3.20;99.90;;;;;;5071367;28;20128;-52
2024/03/07 04:49:15;;;;;;;62.97;21.07;;;3.20;99.90;;;;;;5071508;28;20036;-53
2024/03/07 04:51:41;;;;;;;72.27;22.10;;;3.20;99.90;;;;;;5070177;28;20078;-55
2024/03/07 04:54:06;;;;;;;61.40;21.60;;;3.10;99.90;;;;;;5070152;28;20028;-55
2024/03/07 04:56:32;;;;;;;67.60;20.83;;;3.10;99.90;;;;;;5071437;28;20194;-51
2024/03/07 04:58:58;;;;;;;66.50;22.47;;;3.10;99.90;;;;;;5071223;28;20045;-54
2024/03/07 05:01:24;;;;;;;57.63;19.47;;;3.10;99.90;;;;;;5070998;28;20039;-55
2024/03/07 05:03:52;;;;;;;65.03;21.07;;;3.10;99.90;;;;;;5071452;28;20051;-54
2024/03/07 05:06:18;;;;;;;57.40;19.63;;;3.10;99.90;;;;;;5071281;28;20033;-54
2024/03/07 05:08:44;;;;;;;62.33;22.40;;;3.00;99.90;;;;;;5071277;28;20029;-55
2024/03/07 05:11:10;;;;;;;65.07;20.80;;;3.00;99.90;;;;;;5072965;28;20477;-54
2024/03/07 05:13:37;;;;;;;55.30;20.87;;;3.00;99.90;;;;;;5075044;28;20048;-55
2024/03/07 05:16:02;;;;;;;61.57;20.57;;;3.00;99.90;;;;;;5074857;28;20111;-55
2024/03/07 05:18:28;;;;;;;66.03;21.13;;;2.90;99.90;;;;;;5075011;28;20120;-52
2024/03/07 05:20:54;;;;;;;67.23;21.10;;;2.90;99.90;;;;;;5074934;28;20028;-54
2024/03/07 05:23:20;;;;;;;63.43;20.60;;;2.90;99.90;;;;;;5074884;28;20032;-55
2024/03/07 05:25:46;;;;;;;63.60;20.13;;;2.80;99.90;;;;;;5074881;28;20051;-54
2024/03/07 05:28:12;;;;;;;68.10;20.90;;;2.90;99.90;;;;;;5074825;28;20028;-52
2024/03/07 05:30:37;;;;;;;65.97;20.47;;;2.80;99.90;;;;;;5074692;28;20031;-55
2024/03/07 05:33:04;;;;;;;56.53;19.83;;;2.80;99.90;;;;;;5074857;28;20482;-53
2024/03/07 05:35:29;;;;;;;64.73;22.43;;;2.80;99.90;;;;;;5074642;28;20032;-54
2024/03/07 05:37:56;;;;;;;62.50;20.80;;;2.70;99.90;;;;;;5074610;28;20032;-53
2024/03/07 05:40:22;;;;;;;64.00;20.50;;;2.70;99.90;;;;;;5074549;28;20170;-53
2024/03/07 05:42:48;;;;;;;61.20;20.57;;;2.70;99.90;;;;;;5074427;28;20047;-53
2024/03/07 05:45:17;;;;;;;63.60;19.83;;;2.70;99.90;;;;;;5074438;28;20366;-54
2024/03/07 05:47:43;;;;;;;63.58;21.20;;;2.60;99.90;;;;;;5074526;28;20032;-54
2024/03/07 05:50:09;;;;;;;60.70;21.13;;;2.60;99.90;;;;;;5074647;28;20024;-55
2024/03/07 05:52:35;;;;;;;62.00;21.47;;;2.60;99.90;;;;;;5074336;28;20028;-54
2024/03/07 05:55:00;;;;;;;58.50;21.00;;;2.60;99.90;;;;;;5074477;28;20111;-54
2024/03/07 05:57:26;;;;;;;65.00;20.07;;;2.60;99.90;;;;;;5074175;28;20503;-54
2024/03/07 05:59:51;;;;;;;71.30;21.57;;;2.60;99.90;;;;;;5074220;28;20415;-54
2024/03/07 06:02:17;;;;;;;66.30;20.93;;;2.60;99.90;;;;;;5074165;28;20060;-52
2024/03/07 06:04:45;;;;;;;62.07;21.40;;;2.60;99.90;;;;;;5074141;28;20086;-53
2024/03/07 06:07:10;;;;;;;62.90;20.70;;;2.60;99.90;;;;;;5074203;28;20029;-51
2024/03/07 06:09:36;;;;;;;67.47;20.53;;;2.60;99.90;;;;;;5074037;28;20031;-51
2024/03/07 06:12:04;;;;;;;65.27;20.40;;;2.60;99.90;;;;;;5073939;28;20071;-50
2024/03/07 06:14:30;;;;;;;64.13;20.33;;;2.50;99.90;;;;;;5073893;28;20032;-52
2024/03/07 06:16:57;;;;;;;64.43;21.17;;;2.50;99.90;;;;;;5073914;28;20485;-54
2024/03/07 06:19:23;;;;;;;58.90;20.73;;;2.50;99.90;;;;;;5073715;28;20489;-51
2024/03/07 06:21:49;;;;;;;61.43;20.13;;;2.50;99.90;;;;;;5073468;28;20040;-54
2024/03/07 06:24:17;;;;;;;59.10;20.37;;;2.50;99.90;;;;;;5073459;28;20021;-53
2024/03/07 06:26:59;;;;;;;63.10;19.63;;;2.50;99.90;;;;;;5074240;28;20111;-53
2024/03/07 06:29:26;;;;;;;53.33;19.87;;;2.50;99.90;;;;;;5073563;28;20037;-50
2024/03/07 06:31:53;;;;;;;57.30;20.37;;;2.50;99.90;;;;;;5073693;28;20036;-55
2024/03/07 06:34:19;;;;;;;60.67;21.20;;;2.50;99.90;;;;;;5073629;28;20043;-52
2024/03/07 06:36:45;;;;;;;62.17;21.50;;;2.50;99.90;;;;;;5073543;28;20024;-55
2024/03/07 06:39:10;;;;;;;62.87;20.20;;;2.50;99.90;;;;;;5073315;28;20028;-51
2024/03/07 06:41:36;;;;;;;56.67;19.77;;;2.50;99.90;;;;;;5073258;28;20031;-49
2024/03/07 06:44:02;;;;;;;50.20;18.80;;;2.50;99.90;;;;;;5073693;28;20385;-54
2024/03/07 06:46:28;;;;;;;59.90;20.17;;;2.60;99.90;;;;;;5073387;28;20043;-52
2024/03/07 06:48:55;;;;;;;57.47;20.60;;;2.60;99.90;;;;;;5073348;28;20036;-52
2024/03/07 06:51:22;;;;;;;52.77;18.50;;;2.60;99.90;;;;;;5073009;28;20040;-53
2024/03/07 06:53:48;;;;;;;52.67;20.70;;;2.70;99.90;;;;;;5073167;28;20102;-53
2024/03/07 06:56:14;;;;;;;54.57;20.73;;;2.70;99.90;;;;;;5073225;28;20476;-52
2024/03/07 06:58:42;;;;;;;57.17;19.97;;;2.70;99.90;;;;;;5071740;28;20036;-54
2024/03/07 07:01:10;;;;;;;55.23;19.20;;;2.70;99.90;;;;;;5073135;28;20059;-53
2024/03/07 07:03:36;;;;;;;49.83;21.13;;;2.80;99.90;;;;;;5072998;28;20033;-54
2024/03/07 07:06:02;;;;;;;52.80;20.67;;;2.80;99.90;;;;;;5072929;28;20424;-51
2024/03/07 07:08:29;;;;;;;47.00;19.03;;;2.80;99.90;;;;;;5072923;28;20039;-54
2024/03/07 07:10:55;;;;;;;58.07;20.07;;;2.90;99.90;;;;;;5072795;28;20028;-49
2024/03/07 07:13:22;;;;;;;54.37;19.90;;;3.00;99.90;;;;;;5072993;28;20039;-53
2024/03/07 07:15:48;;;;;;;51.07;19.07;;;3.00;99.90;;;;;;5072686;28;20044;-49
2024/03/07 07:18:15;;;;;;;45.97;18.57;;;3.10;99.90;;;;;;5072700;28;20037;-51
2024/03/07 07:20:40;;;;;;;53.20;19.80;;;3.20;99.90;;;;;;5072633;28;20029;-53
2024/03/07 07:23:06;;;;;;;52.47;19.43;;;3.20;99.90;;;;;;5072478;28;20016;-52
2024/03/07 07:25:32;;;;;;;50.77;19.00;;;3.30;99.90;;;;;;5072847;28;20470;-50
2024/03/07 07:27:58;;;;;;;49.77;19.70;;;3.50;99.90;;;;;;5072565;28;20032;-53
2024/03/07 07:30:24;;;;;;;46.73;18.97;;;3.70;99.90;;;;;;5072468;28;20028;-51
2024/03/07 07:32:51;;;;;;;44.47;19.20;;;3.90;99.90;;;;;;5072189;28;20033;-51
2024/03/07 07:35:17;;;;;;;46.17;17.97;;;4.10;99.90;;;;;;5070025;28;20032;-52
2024/03/07 07:37:45;;;;;;;44.50;18.10;;;4.40;99.90;;;;;;5072433;28;20028;-51
2024/03/07 07:40:14;;;;;;;41.17;17.53;;;4.60;99.90;;;;;;5072275;28;20036;-54
2024/03/07 07:42:43;;;;;;;40.15;16.27;;;5.00;99.90;;;;;;5072259;28;20032;-55
2024/03/07 07:45:13;;;;;;;34.97;15.80;;;5.30;99.90;;;;;;5072290;28;20043;-53
2024/03/07 07:47:43;;;;;;;36.60;15.43;;;5.70;99.90;;;;;;5072288;28;20060;-55
2024/03/07 07:50:13;;;;;;;35.83;15.90;;;6.10;99.90;;;;;;5072030;28;20029;-53
2024/03/07 07:52:55;;;;;;;36.30;16.13;;;6.40;99.90;;;;;;5072087;28;20033;-56
2024/03/07 07:55:23;;;;;;;35.73;15.17;;;6.60;99.90;;;;;;5072060;28;20029;-56
2024/03/07 07:57:53;;;;;;;33.23;15.20;;;6.80;99.90;;;;;;5072425;28;20039;-56
2024/03/07 08:00:21;;;;;;;35.00;15.20;;;7.00;99.90;;;;;;5072108;28;20124;-56
2024/03/07 08:03:10;;;;;;;28.10;13.23;;;7.20;99.90;;;;;;5071966;28;20473;-55
2024/03/07 08:05:37;;;;;;;32.30;15.27;;;7.40;99.90;;;;;;5071991;28;20032;-55
2024/03/07 08:08:06;;;;;;;36.40;16.00;;;7.50;99.90;;;;;;5071960;28;20508;-56
2024/03/07 08:10:33;;;;;;;33.08;15.98;;;7.30;99.90;;;;;;5071875;28;20426;-53
2024/03/07 08:13:00;;;;;;;37.53;15.00;;;7.10;99.90;;;;;;5071587;28;20059;-55
2024/03/07 08:15:27;;;;;;;36.87;15.90;;;7.20;99.90;;;;;;5071718;28;20028;-54
2024/03/07 08:17:55;;;;;;;35.63;16.57;;;7.10;99.90;;;;;;5072044;28;20032;-54
2024/03/07 08:20:22;;;;;;;33.83;15.00;;;7.10;99.90;;;;;;5071706;28;20032;-55
2024/03/07 08:22:51;;;;;;;34.07;14.90;;;7.20;99.90;;;;;;5071734;28;20033;-56
2024/03/07 08:25:17;;;;;;;32.17;15.57;;;7.40;99.90;;;;;;5071651;28;20037;-55
2024/03/07 08:27:46;;;;;;;33.17;15.33;;;7.60;99.90;;;;;;5071862;28;20079;-54
2024/03/07 08:30:15;;;;;;;36.27;14.73;;;7.90;99.90;;;;;;5071634;28;20477;-55
2024/03/07 08:32:42;;;;;;;32.60;15.60;;;8.10;99.90;;;;;;5071582;28;20532;-55
2024/03/07 08:35:11;;;;;;;34.77;15.57;;;8.30;99.90;;;;;;5071570;28;20039;-54
2024/03/07 08:37:37;;;;;;;;;;;8.50;99.90;;;;;;5072093;28;20039;-54
2024/03/07 08:40:04;;;;;;;30.80;13.63;;;8.70;99.90;;;;;;5071420;28;19957;-54
2024/03/07 08:42:33;;;;;;;28.73;13.07;;;8.80;99.90;;;;;;5071435;28;20020;-54
2024/03/07 08:45:01;;;;;;;34.38;13.73;;;9.10;99.90;;;;;;5071417;28;20029;-50
2024/03/07 08:47:28;;;;;;;34.20;14.87;;;8.90;99.90;;;;;;5075453;28;20029;-54
2024/03/07 08:49:54;;;;;;;28.67;12.87;;;8.70;99.90;;;;;;5075603;28;20036;-54
2024/03/07 08:52:20;;;;;;;28.97;13.93;;;8.60;99.90;;;;;;5075355;28;20036;-56
2024/03/07 08:54:45;;;;;;;30.50;13.47;;;8.80;99.90;;;;;;5075433;28;20051;-52
2024/03/07 08:57:11;;;;;;;25.53;12.03;;;8.80;99.90;;;;;;5075588;28;20054;-55
2024/03/07 08:59:36;;;;;;;23.37;10.83;;;8.80;99.90;;;;;;5075184;28;20040;-54
2024/03/07 09:02:02;;;;;;;26.30;11.87;;;8.80;99.90;;;;;;5075339;28;20070;-56
2024/03/07 09:04:31;;;;;;;27.90;12.07;;;9.00;99.90;;;;;;5075297;28;20037;-56
2024/03/07 09:06:56;;;;;;;25.40;11.55;;;9.00;99.90;;;;;;5075318;28;20446;-56
2024/03/07 09:09:22;;;;;;;24.90;11.33;;;9.10;99.90;;;;;;5074999;28;20111;-55
2024/03/07 09:11:47;;;;;;;23.90;11.13;;;9.20;99.90;;;;;;5075017;28;20033;-56
2024/03/07 09:14:13;;;;;;;22.07;9.97;;;9.20;99.90;;;;;;5075154;28;20389;-55
2024/03/07 09:16:39;;;;;;;24.23;10.93;;;9.60;99.90;;;;;;5074916;28;20032;-55
2024/03/07 09:19:05;;;;;;;24.10;11.33;;;9.80;99.90;;;;;;5074916;28;20032;-55
2024/03/07 09:21:31;;;;;;;22.37;10.30;;;10.10;99.90;;;;;;5074716;28;20074;-50
2024/03/07 09:23:56;;;;;;;21.37;9.93;;;10.30;99.90;;;;;;5074819;28;20036;-52
2024/03/07 09:26:23;;;;;;;19.17;9.33;;;10.30;99.90;;;;;;5074811;28;20052;-54
2024/03/07 09:28:48;;;;;;;19.17;9.37;;;10.40;99.90;;;;;;5074831;28;20082;-53
2024/03/07 09:31:17;;;;;;;22.20;10.40;;;10.20;99.90;;;;;;5074710;28;20032;-51
2024/03/07 09:33:43;;;;;;;20.33;10.15;;;10.10;99.90;;;;;;5074566;28;20036;-53
2024/03/07 09:36:08;;;;;;;20.03;9.40;;;10.10;99.90;;;;;;5074721;28;20040;-53
2024/03/07 09:38:34;;;;;;;20.43;9.43;;;10.40;99.90;;;;;;5074563;28;20500;-53
2024/03/07 09:40:59;;;;;;;21.50;9.47;;;10.60;99.90;;;;;;5074614;28;20021;-54
2024/03/07 09:43:28;;;;;;;18.47;8.87;;;10.70;99.90;;;;;;5074707;28;20028;-54
2024/03/07 09:45:55;;;;;;;21.92;10.18;;;10.70;99.90;;;;;;5073294;28;20500;-50
2024/03/07 09:48:21;;;;;;;21.10;9.33;;;10.70;99.90;;;;;;5074678;28;20032;-54
2024/03/07 09:50:50;;;;;;;23.03;9.97;;;10.70;99.90;;;;;;5074253;28;20033;-54
2024/03/07 09:53:17;;;;;;;20.02;10.07;;;10.70;99.90;;;;;;5074216;28;20036;-53
2024/03/07 09:55:44;;;;;;;22.07;9.93;;;10.50;99.90;;;;;;5074335;28;20033;-54
2024/03/07 09:58:10;;;;;;;24.63;10.03;;;10.40;99.90;;;;;;5073186;28;20033;-53
2024/03/07 10:00:37;;;;;;;21.03;8.97;;;10.10;99.90;;;;;;5074307;28;20150;-52
2024/03/07 10:03:08;;;;;;;22.10;10.00;;;10.10;99.90;;;;;;5074124;28;20115;-54
2024/03/07 10:05:34;;;;;;;19.03;9.03;;;10.10;99.90;;;;;;5074051;28;20040;-54
2024/03/07 10:08:01;;;;;;;24.00;10.33;;;10.10;99.90;;;;;;5073956;28;20115;-54
2024/03/07 10:10:26;;;;;;;23.40;10.47;;;10.10;99.90;;;;;;5074082;28;20078;-54
2024/03/07 10:12:53;;;;;;;18.40;9.13;;;10.00;99.90;;;;;;5073895;28;20246;-54
2024/03/07 10:15:19;;;;;;;18.30;9.00;;;10.00;99.90;;;;;;5073769;28;20037;-54
2024/03/07 10:17:45;;;;;;;23.80;9.50;;;10.20;99.90;;;;;;5073941;28;20051;-53
2024/03/07 10:20:18;;;;;;;20.33;9.73;;;10.30;99.90;;;;;;5073814;28;20425;-55
2024/03/07 10:22:43;;;;;;;23.47;9.97;;;10.40;99.90;;;;;;5074079;28;20416;-53
2024/03/07 10:25:10;;;;;;;19.67;9.40;;;10.50;99.90;;;;;;5073898;28;20031;-54
2024/03/07 10:27:38;;;;;;;20.42;10.02;;;11.00;99.90;;;;;;5073873;28;20021;-54
2024/03/07 10:30:07;;;;;;;20.15;9.75;;;11.60;99.90;;;;;;5073646;28;20032;-53
2024/03/07 10:32:33;;;;;;;;;;;12.10;99.00;;;;;;5074031;28;20091;-54
2024/03/07 10:34:59;;;;;;;19.00;9.30;;;12.40;97.80;;;;;;5073607;28;19912;-51
2024/03/07 10:37:25;;;;;;;19.45;9.48;;;12.20;97.90;;;;;;5073710;28;20032;-50
2024/03/07 10:39:51;;;;;;;20.20;10.43;;;12.20;97.80;;;;;;5073350;28;20029;-54
2024/03/07 10:42:18;;;;;;;18.85;10.10;;;12.00;98.60;;;;;;5073324;28;20043;-54
2024/03/07 10:44:47;;;;;;;22.13;10.73;;;11.60;98.80;;;;;;5073584;28;20495;-54
2024/03/07 10:47:17;;;;;;;21.02;10.13;;;11.40;99.90;;;;;;5073712;28;20107;-53
2024/03/07 10:50:14;;;;;;;23.95;9.85;;;11.50;99.50;;;;;;5073222;28;20028;-54
2024/03/07 10:52:48;;;;;;;19.50;9.55;;;12.50;97.90;;;;;;5073145;28;20500;-54
2024/03/07 10:55:51;;;;;;;23.80;11.40;;;12.80;98.50;;;;;;5073161;28;20111;-55
2024/03/07 10:58:24;;;;;;;20.17;10.18;;;12.80;97.70;;;;;;5073115;28;20401;-54
2024/03/07 11:00:51;;;;;;;24.88;10.93;;;13.50;97.80;;;;;;5071866;28;20077;-55
2024/03/07 11:03:20;;;;;;;23.77;10.98;;;13.90;96.90;;;;;;5072922;28;20043;-54
2024/03/07 11:05:46;;;;;;;;;;;14.80;95.30;;;;;;5073423;28;20489;-52
2024/03/07 11:08:12;;;;;;;19.20;9.80;;;14.90;95.00;;;;;;5072858;28;19908;-54
2024/03/07 11:10:38;;;;;;;18.45;10.23;;;15.10;94.80;;;;;;5072844;28;20048;-54
2024/03/07 11:13:07;;;;;;;19.63;10.35;;;15.40;94.00;;;;;;5072743;28;20504;-55
2024/03/07 11:15:34;;;;;;;22.48;10.50;;;15.60;92.60;;;;;;5072759;28;20024;-55
2024/03/07 11:18:00;;;;;;;18.02;10.30;;;15.80;93.00;;;;;;5072946;28;20519;-54
2024/03/07 11:20:27;;;;;;;18.15;10.25;;;15.80;92.60;;;;;;5072616;28;20031;-54
2024/03/07 11:22:56;;;;;;;17.23;10.45;;;15.70;92.50;;;;;;5072473;28;20036;-53
2024/03/07 11:25:22;;;;;;;;;;;16.00;91.20;;;;;;5073157;28;20048;-53
2024/03/07 11:27:54;;;;;;;22.17;9.65;;;16.00;91.10;;;;;;5072475;28;19908;-54
2024/03/07 11:30:22;;;;;;;18.73;10.55;;;15.70;92.20;;;;;;5072316;28;20036;-54
2024/03/07 11:32:53;;;;;;;18.50;10.18;;;15.10;92.80;;;;;;5072276;28;20024;-53
2024/03/07 11:35:32;;;;;;;18.83;10.68;;;14.90;93.10;;;;;;5072420;28;20036;-52
2024/03/07 11:37:59;;;;;;;16.42;8.90;;;15.20;93.30;;;;;;5072420;28;20464;-54
2024/03/07 11:40:24;;;;;;;17.92;10.07;;;15.60;92.50;;;;;;5072372;28;20469;-54
2024/03/07 11:42:54;;;;;;;20.02;10.32;;;15.70;92.20;;;;;;5072210;28;20107;-54
2024/03/07 11:45:27;;;;;;;16.23;9.38;;;15.40;92.20;;;;;;5072144;28;20032;-52
2024/03/07 11:47:59;;;;;;;16.92;9.93;;;15.30;92.30;;;;;;5072330;28;20044;-55
2024/03/07 11:50:28;;;;;;;17.23;9.48;;;15.60;92.10;;;;;;5072111;28;20036;-52
2024/03/07 11:52:55;;;;;;;15.40;9.38;;;15.60;92.20;;;;;;5072018;28;20035;-54
2024/03/07 11:55:22;;;;;;;17.15;9.65;;;15.30;92.10;;;;;;5070899;28;20405;-52
2024/03/07 11:57:48;;;;;;;18.67;10.63;;;14.70;92.90;;;;;;5071962;28;20531;-55
2024/03/07 12:00:15;;;;;;;18.67;9.88;;;14.40;93.70;;;;;;5071946;28;20025;-52
2024/03/07 12:02:43;;;;;;;17.48;9.38;;;14.70;93.70;;;;;;5071947;28;20385;-54
2024/03/07 12:05:09;;;;;;;18.80;10.10;;;15.50;92.90;;;;;;5071882;28;20030;-55
2024/03/07 12:07:35;;;;;;;17.20;9.68;;;16.00;91.60;;;;;;5071983;28;20035;-55
2024/03/07 12:10:03;;;;;;;18.48;10.20;;;16.00;91.50;;;;;;5071886;28;20032;-55
2024/03/07 12:12:30;;;;;;;19.00;10.80;;;15.90;92.80;;;;;;5071747;28;20024;-55
2024/03/07 12:14:56;;;;;;;17.33;8.93;;;15.60;92.20;;;;;;5071775;28;20028;-54
2024/03/07 12:17:22;;;;;;;18.58;10.13;;;15.00;92.60;;;;;;5070527;28;20035;-54
2024/03/07 12:19:51;;;;;;;17.27;10.32;;;14.30;93.10;;;;;;5071392;28;20028;-53
2024/03/07 12:22:22;;;;;;;17.55;10.02;;;14.00;93.90;;;;;;5070181;28;20036;-54
2024/03/07 12:25:02;;;;;;;19.77;10.70;;;13.50;94.40;;;;;;5071677;28;20032;-55
2024/03/07 12:27:28;;;;;;;18.55;9.73;;;13.10;94.80;;;;;;5071792;28;20048;-55
2024/03/07 12:29:53;;;;;;;20.30;10.63;;;12.60;96.10;;;;;;5071534;28;20044;-52
2024/03/07 12:32:19;;;;;;;19.63;9.88;;;12.30;97.10;;;;;;5070174;28;20032;-53
2024/03/07 12:34:46;;;;;;;17.75;9.65;;;11.90;97.90;;;;;;5071549;28;20028;-51
2024/03/07 12:37:16;;;;;;;19.98;10.00;;;11.90;98.60;;;;;;5071558;28;20086;-53